Time;durP1;ratioP1;P1;durP2;ratioP2;P2;SDS_P1;SDS_P2;PMS_P1;PMS_P2;Temp;Humidity;BMP_temperature;BMP_pressure;BME280_temperature;BME280_humidity;BME280_pressure;Samples;Min_cycle;Max_cycle;Signal;HPM_P1;HPM_P2
2021/06/18 00:00:26;;;;;;;6.23;4.83;;;;;;;;;;5013030;28;20197;-74
2021/06/18 00:03:30;;;;;;;6.17;4.90;;;;;;;;;;5001024;28;20174;-74
2021/06/18 00:06:34;;;;;;;6.23;4.73;;;;;;;;;;5013162;28;20213;-73
2021/06/18 00:09:39;;;;;;;5.57;5.03;;;;;;;;;;5012725;28;20252;-74
2021/06/18 00:12:43;;;;;;;7.47;5.30;;;;;;;;;;5013079;28;20675;-74
2021/06/18 00:15:47;;;;;;;6.67;4.73;;;;;;;;;;5013142;28;20189;-74
2021/06/18 00:18:51;;;;;;;6.23;4.97;;;;;;;;;;5012883;28;20181;-74
2021/06/18 00:21:56;;;;;;;6.20;4.70;;;;;;;;;;5012793;28;20197;-74
2021/06/18 00:25:00;;;;;;;7.33;4.70;;;;;;;;;;5012747;28;20652;-74
2021/06/18 00:28:05;;;;;;;6.77;5.00;;;;;;;;;;5012638;28;20218;-74
2021/06/18 00:31:09;;;;;;;8.60;5.00;;;;;;;;;;5012912;28;20672;-74
2021/06/18 00:34:13;;;;;;;6.10;5.23;;;;;;;;;;5012691;28;20206;-74
2021/06/18 00:37:18;;;;;;;8.03;5.17;;;;;;;;;;5016082;28;20225;-74
2021/06/18 00:40:22;;;;;;;7.17;4.73;;;;;;;;;;5016676;28;20182;-74
2021/06/18 00:43:26;;;;;;;10.00;5.07;;;;;;;;;;5016110;28;20177;-74
2021/06/18 00:46:30;;;;;;;6.23;5.00;;;;;;;;;;5015137;28;20213;-74
2021/06/18 00:49:34;;;;;;;9.10;5.30;;;;;;;;;;5015685;28;20201;-74
2021/06/18 00:52:38;;;;;;;5.70;5.13;;;;;;;;;;5015801;28;20560;-74
2021/06/18 00:55:46;;;;;;;6.53;4.83;;;;;;;;;;5015410;28;20628;-73
2021/06/18 00:58:51;;;;;;;6.17;5.47;;;;;;;;;;5016099;28;20182;-74
2021/06/18 01:01:55;;;;;;;6.80;5.40;;;;;;;;;;5015922;28;20177;-74
2021/06/18 01:05:00;;;;;;;9.07;5.50;;;;;;;;;;5014900;28;20185;-74
2021/06/18 01:08:30;;;;;;;8.40;5.37;;;;;;;;;;5015822;28;20556;-74
2021/06/18 01:11:58;;;;;;;6.30;5.40;;;;;;;;;;5015807;28;20205;-74
2021/06/18 01:15:02;;;;;;;5.97;5.37;;;;;;;;;;5014999;28;20189;-74
2021/06/18 01:18:15;;;;;;;8.37;4.87;;;;;;;;;;5015363;28;20561;-73
2021/06/18 01:21:28;;;;;;;14.63;5.20;;;;;;;;;;5015618;28;20201;-74
2021/06/18 01:24:50;;;;;;;7.50;5.50;;;;;;;;;;5014564;28;20194;-74
2021/06/18 01:28:03;;;;;;;7.17;5.00;;;;;;;;;;5015452;28;20217;-74
2021/06/18 01:31:11;;;;;;;7.87;5.17;;;;;;;;;;5015391;28;20189;-74
2021/06/18 01:34:23;;;;;;;6.63;5.17;;;;;;;;;;5015249;28;20178;-74
2021/06/18 01:37:30;;;;;;;5.43;4.70;;;;;;;;;;5015098;28;20209;-74
2021/06/18 01:40:36;;;;;;;7.83;5.40;;;;;;;;;;5014498;28;20178;-74
2021/06/18 01:43:43;;;;;;;6.43;5.47;;;;;;;;;;5015222;28;20174;-74
2021/06/18 01:46:48;;;;;;;6.03;5.27;;;;;;;;;;5014862;28;20217;-74
2021/06/18 01:49:53;;;;;;;6.80;5.10;;;;;;;;;;5014801;28;20197;-74
2021/06/18 01:53:03;;;;;;;7.93;6.00;;;;;;;;;;5014688;28;20209;-74
2021/06/18 01:56:07;;;;;;;6.77;5.57;;;;;;;;;;5014921;28;20628;-74
2021/06/18 01:59:12;;;;;;;8.00;5.47;;;;;;;;;;5014907;28;20197;-74
2021/06/18 02:02:17;;;;;;;7.70;5.40;;;;;;;;;;5014675;28;20170;-74
2021/06/18 02:05:22;;;;;;;6.00;5.10;;;;;;;;;;5014323;28;20181;-74
2021/06/18 02:08:27;;;;;;;9.40;5.47;;;;;;;;;;5002658;28;20181;-74
2021/06/18 02:11:33;;;;;;;5.10;4.70;;;;;;;;;;5014617;28;20177;-74
2021/06/18 02:14:38;;;;;;;5.77;4.97;;;;;;;;;;5013873;28;20181;-73
2021/06/18 02:17:43;;;;;;;8.90;5.90;;;;;;;;;;5014259;28;20213;-74
2021/06/18 02:20:50;;;;;;;5.67;5.17;;;;;;;;;;5014272;28;20185;-74
2021/06/18 02:23:57;;;;;;;5.73;5.23;;;;;;;;;;5014380;28;20178;-73
2021/06/18 02:27:03;;;;;;;8.23;6.43;;;;;;;;;;5013571;28;20213;-74
2021/06/18 02:30:10;;;;;;;6.93;5.90;;;;;;;;;;5014342;28;20201;-74
2021/06/18 02:33:15;;;;;;;8.50;5.70;;;;;;;;;;5013559;28;20221;-74
2021/06/18 02:36:20;;;;;;;6.67;5.80;;;;;;;;;;5014198;28;20217;-74
2021/06/18 02:39:24;;;;;;;7.07;6.37;;;;;;;;;;5014149;28;20182;-73
2021/06/18 02:42:29;;;;;;;7.37;5.60;;;;;;;;;;5014236;28;20628;-74
2021/06/18 02:45:33;;;;;;;7.87;5.10;;;;;;;;;;5014196;28;20182;-73
2021/06/18 02:48:42;;;;;;;4.47;4.07;;;;;;;;;;5013905;28;20173;-73
2021/06/18 02:51:51;;;;;;;5.43;4.90;;;;;;;;;;5013176;28;20178;-73
2021/06/18 02:55:10;;;;;;;7.07;5.17;;;;;;;;;;5013758;28;20186;-73
2021/06/18 02:58:30;;;;;;;8.13;5.20;;;;;;;;;;5012339;28;20221;-72
2021/06/18 03:01:38;;;;;;;5.97;4.93;;;;;;;;;;5013000;28;20185;-72
2021/06/18 03:04:44;;;;;;;7.13;5.30;;;;;;;;;;5013841;28;20178;-73
2021/06/18 03:08:03;;;;;;;6.97;5.53;;;;;;;;;;5013555;28;20593;-72
2021/06/18 03:11:10;;;;;;;6.03;5.47;;;;;;;;;;5021221;22;20234;-72
2021/06/18 03:14:17;;;;;;;5.97;5.37;;;;;;;;;;4979968;28;20201;-72
2021/06/18 03:17:24;;;;;;;8.33;5.60;;;;;;;;;;4993170;28;20217;-72
2021/06/18 03:20:29;;;;;;;6.30;5.27;;;;;;;;;;4980294;28;20534;-72
2021/06/18 03:23:35;;;;;;;6.43;5.73;;;;;;;;;;4977297;28;20194;-72
2021/06/18 03:26:40;;;;;;;6.53;5.63;;;;;;;;;;4993879;28;20218;-72
2021/06/18 03:29:45;;;;;;;5.50;5.00;;;;;;;;;;4991955;28;20190;-72
2021/06/18 03:32:51;;;;;;;8.63;5.40;;;;;;;;;;4993797;28;20210;-72
2021/06/18 03:35:56;;;;;;;6.40;5.80;;;;;;;;;;4976562;28;20202;-72
2021/06/18 03:39:01;;;;;;;43.67;7.93;;;;;;;;;;4993696;28;20641;-72
2021/06/18 03:42:06;;;;;;;8.87;6.10;;;;;;;;;;4986032;28;20190;-72
2021/06/18 03:45:11;;;;;;;11.23;5.73;;;;;;;;;;4992212;28;20194;-72
2021/06/18 03:48:16;;;;;;;8.60;5.70;;;;;;;;;;4977333;28;20238;-73
2021/06/18 03:51:21;;;;;;;7.70;5.57;;;;;;;;;;4970732;28;20186;-72
2021/06/18 03:54:25;;;;;;;7.33;5.30;;;;;;;;;;4951286;28;20175;-72
2021/06/18 03:57:32;;;;;;;8.33;5.97;;;;;;;;;;4974093;28;20558;-73
2021/06/18 04:00:39;;;;;;;7.63;5.27;;;;;;;;;;4971125;28;20191;-72
2021/06/18 04:03:47;;;;;;;9.80;5.57;;;;;;;;;;4970454;28;20507;-72
2021/06/18 04:06:52;;;;;;;7.33;5.50;;;;;;;;;;4969185;28;20219;-72
2021/06/18 04:09:57;;;;;;;7.43;6.13;;;;;;;;;;4969547;28;20183;-72
2021/06/18 04:13:02;;;;;;;12.73;5.47;;;;;;;;;;4973514;28;20206;-73
2021/06/18 04:16:08;;;;;;;10.33;5.97;;;;;;;;;;4973758;28;20485;-72
2021/06/18 04:19:13;;;;;;;11.83;6.23;;;;;;;;;;4973813;28;20602;-73
2021/06/18 04:22:24;;;;;;;11.80;5.87;;;;;;;;;;4972853;28;20613;-72
2021/06/18 04:25:29;;;;;;;8.87;6.23;;;;;;;;;;4961332;28;20187;-72
2021/06/18 04:28:38;;;;;;;6.27;5.67;;;;;;;;;;4972608;28;20194;-72
2021/06/18 04:31:44;;;;;;;10.80;7.40;;;;;;;;;;4974739;28;20633;-73
2021/06/18 04:34:48;;;;;;;8.07;6.30;;;;;;;;;;4977239;28;20191;-72
2021/06/18 04:37:52;;;;;;;10.97;6.00;;;;;;;;;;4976788;28;20218;-72
2021/06/18 04:40:57;;;;;;;6.53;5.83;;;;;;;;;;4977379;28;20543;-72
2021/06/18 04:44:01;;;;;;;7.90;6.40;;;;;;;;;;4977330;28;20175;-72
2021/06/18 04:47:06;;;;;;;8.10;6.70;;;;;;;;;;4976239;28;20226;-72
2021/06/18 04:50:11;;;;;;;13.23;7.00;;;;;;;;;;4976940;28;20182;-73
2021/06/18 04:53:15;;;;;;;19.60;6.90;;;;;;;;;;4977047;28;20210;-72
2021/06/18 04:56:20;;;;;;;19.67;7.40;;;;;;;;;;4975966;28;20218;-72
2021/06/18 04:59:24;;;;;;;14.73;7.57;;;;;;;;;;4976725;28;20198;-71
2021/06/18 05:02:28;;;;;;;16.37;7.60;;;;;;;;;;4977007;28;20183;-72
2021/06/18 05:05:32;;;;;;;13.37;7.30;;;;;;;;;;4976937;28;20186;-71
2021/06/18 05:08:36;;;;;;;11.63;7.30;;;;;;;;;;4976523;28;20179;-71
2021/06/18 05:11:41;;;;;;;15.57;8.43;;;;;;;;;;4975103;28;20661;-71
2021/06/18 05:14:45;;;;;;;11.77;8.30;;;;;;;;;;4975057;28;20195;-71
2021/06/18 05:17:49;;;;;;;12.13;8.90;;;;;;;;;;4974900;28;20581;-71
2021/06/18 05:20:53;;;;;;;9.43;7.67;;;;;;;;;;4974267;28;20194;-71
2021/06/18 05:23:58;;;;;;;14.67;8.67;;;;;;;;;;4975005;28;20191;-71
2021/06/18 05:27:02;;;;;;;11.53;8.93;;;;;;;;;;4976477;28;20214;-71
2021/06/18 05:30:08;;;;;;;11.57;9.63;;;;;;;;;;4976510;28;20187;-71
2021/06/18 05:33:12;;;;;;;10.53;9.33;;;;;;;;;;4976026;28;20230;-71
2021/06/18 05:36:17;;;;;;;10.10;9.00;;;;;;;;;;4975953;28;20218;-71
2021/06/18 05:39:21;;;;;;;11.57;8.27;;;;;;;;;;4976333;28;20182;-71
2021/06/18 05:42:26;;;;;;;9.77;8.77;;;;;;;;;;4976154;28;20175;-71
2021/06/18 05:45:33;;;;;;;18.53;9.83;;;;;;;;;;4975359;28;20186;-71
2021/06/18 05:48:37;;;;;;;14.20;9.00;;;;;;;;;;4976102;28;20175;-71
2021/06/18 05:51:41;;;;;;;28.00;9.77;;;;;;;;;;4975871;28;20179;-71
2021/06/18 05:54:45;;;;;;;24.67;9.50;;;;;;;;;;4975490;28;20206;-71
2021/06/18 05:57:51;;;;;;;19.50;9.10;;;;;;;;;;4975082;28;20226;-71
2021/06/18 06:00:55;;;;;;;15.13;8.60;;;;;;;;;;4975835;28;20520;-71
2021/06/18 06:03:59;;;;;;;15.93;7.63;;;;;;;;;;4975523;28;20174;-71
2021/06/18 06:07:04;;;;;;;17.17;8.33;;;;;;;;;;4975343;28;20222;-71
2021/06/18 06:10:08;;;;;;;14.90;8.50;;;;;;;;;;4975280;28;20206;-71
2021/06/18 06:13:12;;;;;;;14.60;8.70;;;;;;;;;;4975139;28;20218;-71
2021/06/18 06:16:16;;;;;;;15.23;7.60;;;;;;;;;;4975316;28;20219;-71
2021/06/18 06:19:20;;;;;;;13.73;8.20;;;;;;;;;;4975571;28;20614;-71
2021/06/18 06:22:24;;;;;;;15.83;7.77;;;;;;;;;;4975472;28;20199;-71
2021/06/18 06:25:29;;;;;;;13.83;7.20;;;;;;;;;;4975182;28;20198;-71
2021/06/18 06:28:34;;;;;;;14.87;7.20;;;;;;;;;;4974622;28;20523;-71
2021/06/18 06:31:43;;;;;;;15.37;7.57;;;;;;;;;;4975025;28;20198;-71
2021/06/18 06:34:47;;;;;;;19.00;8.03;;;;;;;;;;4974505;28;20720;-71
2021/06/18 06:37:53;;;;;;;16.17;7.07;;;;;;;;;;4975471;28;20215;-71
2021/06/18 06:40:57;;;;;;;14.83;7.10;;;;;;;;;;4975194;28;20187;-71
2021/06/18 06:44:01;;;;;;;10.83;6.83;;;;;;;;;;4975389;28;20179;-71
2021/06/18 06:47:05;;;;;;;11.33;6.43;;;;;;;;;;4973924;28;20214;-71
2021/06/18 06:50:10;;;;;;;15.47;7.07;;;;;;;;;;4974739;28;20534;-71
2021/06/18 06:53:15;;;;;;;17.07;7.20;;;;;;;;;;4963015;28;20214;-71
2021/06/18 06:56:18;;;;;;;11.73;6.50;;;;;;;;;;4974153;28;20219;-71
2021/06/18 06:59:22;;;;;;;9.53;6.13;;;;;;;;;;4974188;28;20656;-71
2021/06/18 07:02:27;;;;;;;9.30;6.30;;;;;;;;;;4974599;28;20538;-71
2021/06/18 07:05:31;;;;;;;8.00;5.40;;;;;;;;;;4975088;28;20179;-71
2021/06/18 07:08:35;;;;;;;10.67;5.50;;;;;;;;;;4974718;28;20183;-71
2021/06/18 07:11:39;;;;;;;6.60;5.70;;;;;;;;;;4974549;28;20654;-71
2021/06/18 07:14:43;;;;;;;11.53;6.03;;;;;;;;;;4974412;28;20211;-71
2021/06/18 07:17:48;;;;;;;8.07;5.60;;;;;;;;;;4974560;28;20223;-71
2021/06/18 07:20:53;;;;;;;11.30;5.57;;;;;;;;;;4974357;28;20651;-71
2021/06/18 07:23:57;;;;;;;11.07;5.97;;;;;;;;;;4974266;28;20197;-71
2021/06/18 07:27:01;;;;;;;8.47;5.80;;;;;;;;;;4974207;28;20224;-71
2021/06/18 07:30:06;;;;;;;9.30;5.60;;;;;;;;;;4974543;28;20270;-71
2021/06/18 07:33:10;;;;;;;14.13;5.23;;;;;;;;;;4974406;28;20205;-71
2021/06/18 07:36:20;;;;;;;7.83;5.10;;;;;;;;;;4974360;28;20216;-71
2021/06/18 07:39:24;;;;;;;8.65;5.03;;;;;;;;;;4973494;28;20203;-71
2021/06/18 07:42:29;;;;;;;7.43;4.70;;;;;;;;;;4974430;28;20180;-71
2021/06/18 07:45:33;;;;;;;7.07;4.60;;;;;;;;;;4977349;28;20182;-71
2021/06/18 07:48:37;;;;;;;7.97;4.25;;;;;;;;;;4978206;28;20651;-72
2021/06/18 07:51:42;;;;;;;5.03;4.28;;;;;;;;;;4977540;28;20182;-71
2021/06/18 07:54:47;;;;;;;11.90;4.53;;;;;;;;;;4977901;28;20218;-72
2021/06/18 07:57:52;;;;;;;8.23;4.43;;;;;;;;;;4977056;28;20212;-72
2021/06/18 08:00:56;;;;;;;7.45;4.57;;;;;;;;;;4978143;28;20186;-72
2021/06/18 08:04:00;;;;;;;4.70;4.20;;;;;;;;;;4977814;28;20186;-72
2021/06/18 08:07:04;;;;;;;6.40;3.80;;;;;;;;;;4977882;28;20222;-72
2021/06/18 08:10:10;;;;;;;6.35;3.90;;;;;;;;;;4977606;28;20197;-72
2021/06/18 08:13:15;;;;;;;8.35;4.40;;;;;;;;;;4977851;28;20198;-72
2021/06/18 08:16:19;;;;;;;7.72;3.85;;;;;;;;;;4977754;28;20219;-72
2021/06/18 08:19:23;;;;;;;8.27;3.97;;;;;;;;;;4977550;28;20182;-72
2021/06/18 08:22:27;;;;;;;6.20;4.10;;;;;;;;;;4977735;28;20520;-72
2021/06/18 08:25:31;;;;;;;6.60;3.63;;;;;;;;;;4977920;28;20183;-72
2021/06/18 08:28:35;;;;;;;9.55;3.65;;;;;;;;;;4977605;28;20630;-72
2021/06/18 08:31:39;;;;;;;5.13;3.78;;;;;;;;;;4976756;28;20183;-72
2021/06/18 08:34:43;;;;;;;4.65;3.58;;;;;;;;;;4977687;28;20210;-72
2021/06/18 08:37:48;;;;;;;6.13;3.83;;;;;;;;;;4977056;28;20219;-72
2021/06/18 08:40:52;;;;;;;6.43;3.80;;;;;;;;;;4977109;28;20662;-72
2021/06/18 08:43:57;;;;;;;9.82;4.50;;;;;;;;;;4977617;28;20626;-72
2021/06/18 08:47:02;;;;;;;13.73;4.60;;;;;;;;;;4976124;28;20218;-72
2021/06/18 08:50:07;;;;;;;8.57;4.80;;;;;;;;;;4977470;28;20203;-72
2021/06/18 08:53:12;;;;;;;5.88;3.90;;;;;;;;;;4976335;28;20184;-72
2021/06/18 08:56:16;;;;;;;5.00;4.00;;;;;;;;;;4976469;28;20211;-72
2021/06/18 08:59:21;;;;;;;6.93;4.18;;;;;;;;;;4977060;28;20183;-72
2021/06/18 09:02:25;;;;;;;6.18;4.03;;;;;;;;;;4975962;28;20205;-72
2021/06/18 09:05:30;;;;;;;8.45;4.25;;;;;;;;;;4976159;28;20176;-72
2021/06/18 09:08:34;;;;;;;8.40;4.00;;;;;;;;;;4976810;28;20179;-72
2021/06/18 09:11:55;;;;;;;7.20;3.38;;;;;;;;;;5014196;23;20240;-83
2021/06/18 09:14:59;;;;;;;5.93;3.45;;;;;;;;;;5034991;28;20205;-83
2021/06/18 09:18:40;;;;;;;8.70;4.22;;;;;;;;;;5034928;28;20639;-84
2021/06/18 09:21:44;;;;;;;21.17;4.78;;;;;;;;;;5009439;28;20229;-84
2021/06/18 09:25:03;;;;;;;9.15;4.07;;;;;;;;;;5023228;28;20193;-84
2021/06/18 09:28:07;;;;;;;5.05;4.10;;;;;;;;;;5023321;28;20185;-84
2021/06/18 09:31:11;;;;;;;4.13;3.72;;;;;;;;;;5011853;28;20181;-84
2021/06/18 09:37:53;;;;;;;7.32;3.58;;;;;;;;;;5035383;28;20185;-84
2021/06/18 09:40:58;;;;;;;6.55;3.60;;;;;;;;;;5011696;28;20197;-84
2021/06/18 09:44:11;;;;;;;7.75;4.10;;;;;;;;;;5011886;28;20177;-84
2021/06/18 09:47:20;;;;;;;15.45;4.43;;;;;;;;;;5023296;28;20189;-84
2021/06/18 09:50:27;;;;;;;17.08;4.20;;;;;;;;;;5034430;28;20620;-84
2021/06/18 09:53:32;;;;;;;8.95;3.90;;;;;;;;;;5011780;28;20181;-84
2021/06/18 09:56:36;;;;;;;7.80;3.50;;;;;;;;;;5011501;28;20514;-84
2021/06/18 09:59:45;;;;;;;5.05;3.88;;;;;;;;;;5022765;28;20181;-84
2021/06/18 10:02:52;;;;;;;9.10;3.97;;;;;;;;;;5011099;28;20560;-84
2021/06/18 10:05:56;;;;;;;6.70;3.50;;;;;;;;;;5011424;28;20178;-84
2021/06/18 10:09:01;;;;;;;7.00;3.83;;;;;;;;;;5022317;28;20173;-84
2021/06/18 10:12:09;;;;;;;7.57;3.97;;;;;;;;;;5011060;28;20227;-84
2021/06/18 10:15:16;;;;;;;4.55;3.67;;;;;;;;;;5033459;28;20221;-84
2021/06/18 10:18:20;;;;;;;3.90;3.10;;;;;;;;;;5010844;28;20197;-84
2021/06/18 10:21:27;;;;;;;8.45;3.45;;;;;;;;;;5011254;28;20216;-84
2021/06/18 10:24:35;;;;;;;4.47;3.17;;;;;;;;;;5010945;28;20624;-84
2021/06/18 10:27:44;;;;;;;6.15;3.13;;;;;;;;;;5022355;28;20518;-84
2021/06/18 10:30:50;;;;;;;5.18;3.35;;;;;;;;;;5010985;28;20181;-84
2021/06/18 10:34:36;;;;;;;3.45;2.92;;;;;;;;;;5022035;28;20177;-84
2021/06/18 10:37:47;;;;;;;5.07;3.38;;;;;;;;;;5023487;28;20186;-84
2021/06/18 10:40:52;;;;;;;4.30;3.40;;;;;;;;;;5022076;28;20189;-84
2021/06/18 10:43:58;;;;;;;7.13;3.90;;;;;;;;;;5022340;28;20182;-84
2021/06/18 10:47:06;;;;;;;7.55;3.50;;;;;;;;;;5010742;28;20620;-84
2021/06/18 10:50:12;;;;;;;4.97;4.07;;;;;;;;;;5021592;28;20223;-84
2021/06/18 10:53:17;;;;;;;6.43;3.90;;;;;;;;;;5021526;28;20216;-84
2021/06/18 10:56:22;;;;;;;4.05;3.67;;;;;;;;;;5021790;28;20660;-84
2021/06/18 10:59:35;;;;;;;4.80;3.70;;;;;;;;;;5033357;28;20177;-84
2021/06/18 11:02:40;;;;;;;3.78;3.47;;;;;;;;;;5021609;28;20238;-84
2021/06/18 11:05:47;;;;;;;6.22;3.88;;;;;;;;;;5033997;28;20185;-84
2021/06/18 11:08:51;;;;;;;6.38;3.90;;;;;;;;;;5021723;28;20201;-84
2021/06/18 11:11:55;;;;;;;5.80;3.42;;;;;;;;;;5021750;28;20224;-84
2021/06/18 11:15:01;;;;;;;3.47;3.00;;;;;;;;;;5032925;28;20221;-84
2021/06/18 11:18:14;;;;;;;7.65;3.28;;;;;;;;;;5021412;28;20177;-84
2021/06/18 11:21:23;;;;;;;3.75;3.45;;;;;;;;;;5021578;28;20182;-83
2021/06/18 11:24:38;;;;;;;3.55;3.30;;;;;;;;;;5021267;28;20173;-84
2021/06/18 11:27:42;;;;;;;5.65;3.53;;;;;;;;;;5021510;28;20181;-84
2021/06/18 11:31:02;;;;;;;6.93;3.50;;;;;;;;;;5033010;28;20173;-84
2021/06/18 11:34:22;;;;;;;4.65;3.00;;;;;;;;;;5009949;28;20178;-84
2021/06/18 11:37:32;;;;;;;3.65;3.05;;;;;;;;;;5032990;28;20189;-84
2021/06/18 11:40:37;;;;;;;4.18;2.92;;;;;;;;;;5032888;28;20177;-84
2021/06/18 11:43:41;;;;;;;3.83;3.03;;;;;;;;;;5021278;28;20181;-84
2021/06/18 11:46:51;;;;;;;5.55;3.38;;;;;;;;;;5021182;28;20196;-84
2021/06/18 11:49:55;;;;;;;5.68;3.17;;;;;;;;;;5009993;28;20663;-84
2021/06/18 11:53:00;;;;;;;3.95;3.05;;;;;;;;;;5009548;28;20213;-84
2021/06/18 11:56:05;;;;;;;3.72;3.35;;;;;;;;;;5009916;28;20695;-84
2021/06/18 11:59:13;;;;;;;5.13;3.38;;;;;;;;;;5021303;28;20185;-84
2021/06/18 12:02:23;;;;;;;5.68;3.42;;;;;;;;;;5032244;28;20691;-84
2021/06/18 12:05:32;;;;;;;5.85;3.40;;;;;;;;;;5032452;28;20196;-84
2021/06/18 12:08:37;;;;;;;6.18;4.22;;;;;;;;;;5032078;28;20193;-84
2021/06/18 12:11:43;;;;;;;6.05;3.53;;;;;;;;;;5009653;28;20225;-84
2021/06/18 12:14:54;;;;;;;6.38;3.25;;;;;;;;;;5009928;28;20181;-84
2021/06/18 12:18:01;;;;;;;4.10;3.22;;;;;;;;;;5032065;28;20521;-84
2021/06/18 12:21:06;;;;;;;6.90;3.50;;;;;;;;;;5032231;28;20532;-84
2021/06/18 12:24:10;;;;;;;4.45;3.33;;;;;;;;;;5020704;28;20177;-84
2021/06/18 12:27:17;;;;;;;3.20;2.95;;;;;;;;;;5020984;28;20173;-84
2021/06/18 12:30:22;;;;;;;4.63;2.88;;;;;;;;;;5009521;28;20182;-84
2021/06/18 12:33:26;;;;;;;7.05;2.95;;;;;;;;;;5035617;28;20173;-84
2021/06/18 12:36:36;;;;;;;10.45;3.40;;;;;;;;;;5024174;28;20209;-84
2021/06/18 12:40:11;;;;;;;5.43;3.33;;;;;;;;;;5013087;28;20186;-84
2021/06/18 12:43:16;;;;;;;3.55;3.20;;;;;;;;;;5012898;28;20221;-84
2021/06/18 12:46:21;;;;;;;9.73;3.35;;;;;;;;;;5012629;28;20217;-84
2021/06/18 12:49:29;;;;;;;3.13;2.92;;;;;;;;;;5012999;28;20185;-84
2021/06/18 12:52:47;;;;;;;5.13;3.40;;;;;;;;;;5035656;28;20217;-84
2021/06/18 12:55:51;;;;;;;3.97;3.50;;;;;;;;;;5013081;28;20512;-84
2021/06/18 12:58:55;;;;;;;3.53;2.70;;;;;;;;;;5023777;28;20189;-84
2021/06/18 13:02:00;;;;;;;7.05;3.00;;;;;;;;;;5012457;28;20221;-84
2021/06/18 13:05:16;;;;;;;4.30;3.30;;;;;;;;;;5012566;28;20525;-84
2021/06/18 13:08:20;;;;;;;5.28;3.50;;;;;;;;;;5035115;28;20528;-83
2021/06/18 13:11:35;;;;;;;4.22;3.08;;;;;;;;;;5012180;28;20217;-84
2021/06/18 13:14:41;;;;;;;3.75;3.17;;;;;;;;;;5023695;28;20178;-84
2021/06/18 13:17:50;;;;;;;3.85;3.30;;;;;;;;;;5023493;28;20178;-84
2021/06/18 13:21:03;;;;;;;5.40;3.28;;;;;;;;;;5023863;28;20644;-84
2021/06/18 13:24:12;;;;;;;3.28;2.95;;;;;;;;;;5023325;28;20190;-84
2021/06/18 13:27:17;;;;;;;6.07;3.00;;;;;;;;;;5023440;28;20544;-84
2021/06/18 13:30:21;;;;;;;4.63;3.13;;;;;;;;;;5023539;28;20173;-84
2021/06/18 13:33:26;;;;;;;3.28;2.97;;;;;;;;;;5019651;28;20222;-82
2021/06/18 13:36:32;;;;;;;3.67;3.10;;;;;;;;;;4987174;28;20571;-84
2021/06/18 13:39:38;;;;;;;3.53;2.97;;;;;;;;;;4984046;28;20629;-85
2021/06/18 13:42:43;;;;;;;8.10;2.92;;;;;;;;;;4994669;28;20214;-84
2021/06/18 13:45:47;;;;;;;5.75;3.13;;;;;;;;;;4984046;28;20550;-84
2021/06/18 13:48:51;;;;;;;4.65;3.10;;;;;;;;;;4982641;28;20178;-83
2021/06/18 13:51:55;;;;;;;4.00;2.78;;;;;;;;;;4992964;28;20226;-83
2021/06/18 13:55:00;;;;;;;4.00;3.08;;;;;;;;;;4993102;28;20534;-83
2021/06/18 13:58:04;;;;;;;3.28;2.97;;;;;;;;;;4981814;28;20179;-83
2021/06/18 14:01:08;;;;;;;4.18;2.88;;;;;;;;;;4992279;28;20546;-83
2021/06/18 14:04:13;;;;;;;5.13;2.65;;;;;;;;;;4981634;28;20178;-82
2021/06/18 14:07:17;;;;;;;4.45;3.10;;;;;;;;;;4981661;28;20213;-83
2021/06/18 14:10:22;;;;;;;3.20;2.90;;;;;;;;;;4992385;28;20634;-83
2021/06/18 14:13:26;;;;;;;4.40;3.00;;;;;;;;;;4992220;28;20222;-83
2021/06/18 14:16:46;;;;;;;4.47;2.85;;;;;;;;;;4981231;28;20191;-83
2021/06/18 14:19:50;;;;;;;3.35;3.05;;;;;;;;;;4981415;28;20178;-83
2021/06/18 14:22:54;;;;;;;3.60;2.92;;;;;;;;;;4992491;28;20210;-86
2021/06/18 14:25:59;;;;;;;4.97;3.15;;;;;;;;;;4992077;28;20562;-83
2021/06/18 14:29:04;;;;;;;3.67;2.90;;;;;;;;;;4981064;28;20206;-84
2021/06/18 14:32:10;;;;;;;5.22;3.45;;;;;;;;;;4981385;28;20214;-82
2021/06/18 14:35:14;;;;;;;5.03;3.33;;;;;;;;;;4981127;28;20530;-82
2021/06/18 14:38:18;;;;;;;4.05;3.47;;;;;;;;;;4983393;28;20646;-83
2021/06/18 14:41:22;;;;;;;4.03;3.05;;;;;;;;;;4981993;28;20214;-83
2021/06/18 14:44:27;;;;;;;3.65;3.35;;;;;;;;;;4992521;28;20190;-83
2021/06/18 14:47:32;;;;;;;4.75;3.55;;;;;;;;;;4992718;28;20206;-83
2021/06/18 14:50:36;;;;;;;5.75;4.38;;;;;;;;;;4980406;28;20175;-82
2021/06/18 14:53:41;;;;;;;3.53;3.22;;;;;;;;;;4991207;28;20186;-83
2021/06/18 14:56:45;;;;;;;3.80;3.42;;;;;;;;;;4980877;28;20179;-83
2021/06/18 14:59:49;;;;;;;6.00;3.47;;;;;;;;;;4980487;28;20525;-83
2021/06/18 15:02:53;;;;;;;4.80;3.15;;;;;;;;;;4980132;28;20214;-83
2021/06/18 15:05:58;;;;;;;3.28;3.03;;;;;;;;;;4991799;28;20697;-83
2021/06/18 15:09:04;;;;;;;6.13;3.50;;;;;;;;;;4991945;28;20186;-82
2021/06/18 15:12:08;;;;;;;6.50;3.22;;;;;;;;;;4991348;28;20230;-83
2021/06/18 15:15:13;;;;;;;4.07;3.20;;;;;;;;;;4969050;28;20206;-83
2021/06/18 15:18:18;;;;;;;6.18;3.40;;;;;;;;;;4991563;28;20190;-82
2021/06/18 15:21:22;;;;;;;5.72;3.67;;;;;;;;;;4980922;28;20217;-82
2021/06/18 15:24:26;;;;;;;9.73;3.33;;;;;;;;;;4980400;28;20183;-83
2021/06/18 15:27:32;;;;;;;8.05;3.55;;;;;;;;;;4980299;28;20202;-87
2021/06/18 15:30:37;;;;;;;10.98;3.65;;;;;;;;;;4980317;28;20210;-84
2021/06/18 15:33:41;;;;;;;3.95;3.65;;;;;;;;;;4991242;28;20530;-84
2021/06/18 15:36:45;;;;;;;3.97;3.58;;;;;;;;;;4991135;28;20175;-83
2021/06/18 15:39:50;;;;;;;5.15;3.78;;;;;;;;;;4980113;28;20175;-83
2021/06/18 15:42:54;;;;;;;5.07;3.80;;;;;;;;;;4991363;28;20217;-83
2021/06/18 15:45:58;;;;;;;4.40;4.00;;;;;;;;;;4991172;28;20183;-83
2021/06/18 15:49:02;;;;;;;9.50;4.45;;;;;;;;;;4991208;28;20193;-83
2021/06/18 15:52:07;;;;;;;4.10;3.70;;;;;;;;;;5020025;22;20222;-81
2021/06/18 15:55:12;;;;;;;5.05;4.05;;;;;;;;;;5002659;28;20264;-81
2021/06/18 15:58:16;;;;;;;7.63;4.47;;;;;;;;;;5013429;28;20185;-81
2021/06/18 16:01:20;;;;;;;5.72;4.30;;;;;;;;;;5013679;28;20695;-81
2021/06/18 16:04:24;;;;;;;5.40;4.47;;;;;;;;;;5013703;28;20178;-81
2021/06/18 16:07:29;;;;;;;7.57;5.05;;;;;;;;;;5016873;28;20565;-81
2021/06/18 16:10:33;;;;;;;5.93;4.50;;;;;;;;;;5016714;28;20178;-81
2021/06/18 16:13:40;;;;;;;6.85;4.72;;;;;;;;;;5010138;28;20203;-81
2021/06/18 16:16:45;;;;;;;4.82;4.22;;;;;;;;;;5019700;28;20182;-81
2021/06/18 16:19:49;;;;;;;5.90;4.15;;;;;;;;;;5007237;28;20186;-81
2021/06/18 16:22:53;;;;;;;8.85;4.38;;;;;;;;;;5010307;28;20213;-81
2021/06/18 16:25:58;;;;;;;6.10;3.90;;;;;;;;;;5009177;28;20648;-81
2021/06/18 16:29:03;;;;;;;5.93;4.20;;;;;;;;;;5020828;28;20688;-81
2021/06/18 16:32:08;;;;;;;4.88;4.40;;;;;;;;;;5007999;28;20218;-81
2021/06/18 16:35:12;;;;;;;7.60;3.92;;;;;;;;;;5018778;28;20181;-81
2021/06/18 16:38:16;;;;;;;7.60;4.00;;;;;;;;;;5019734;28;20181;-81
2021/06/18 16:41:21;;;;;;;8.80;4.60;;;;;;;;;;4999553;28;20213;-81
2021/06/18 16:44:25;;;;;;;7.90;4.35;;;;;;;;;;4988422;28;20181;-81
2021/06/18 16:47:29;;;;;;;6.47;4.00;;;;;;;;;;4989171;28;20213;-81
2021/06/18 16:50:34;;;;;;;5.03;4.53;;;;;;;;;;4999299;28;20186;-81
2021/06/18 16:53:38;;;;;;;5.22;4.55;;;;;;;;;;4986887;28;20184;-81
2021/06/18 16:56:42;;;;;;;6.45;4.22;;;;;;;;;;4987374;28;20522;-81
2021/06/18 16:59:46;;;;;;;4.30;3.90;;;;;;;;;;4985717;28;20179;-81
2021/06/18 17:02:51;;;;;;;5.28;4.57;;;;;;;;;;5007158;28;20244;-82
2021/06/18 17:06:04;;;;;;;5.72;4.53;;;;;;;;;;4997784;28;20656;-81
2021/06/18 17:09:09;;;;;;;9.70;4.13;;;;;;;;;;5011830;28;20216;-81
2021/06/18 17:12:35;;;;;;;5.40;4.20;;;;;;;;;;5016842;28;20215;-81
2021/06/18 17:15:42;;;;;;;6.57;4.40;;;;;;;;;;4993863;28;20182;-81
2021/06/18 17:18:47;;;;;;;4.68;3.95;;;;;;;;;;5015500;28;20258;-81
2021/06/18 17:21:51;;;;;;;5.22;4.00;;;;;;;;;;5015489;28;20225;-81
2021/06/18 17:24:56;;;;;;;6.35;4.40;;;;;;;;;;5014839;28;20545;-81
2021/06/18 17:28:00;;;;;;;3.72;3.38;;;;;;;;;;5004889;28;20217;-82
2021/06/18 17:31:05;;;;;;;4.07;3.65;;;;;;;;;;4993022;28;20216;-81
2021/06/18 17:34:09;;;;;;;7.00;4.13;;;;;;;;;;5026742;28;20674;-81
2021/06/18 17:37:14;;;;;;;4.53;3.60;;;;;;;;;;5014778;28;20525;-81
2021/06/18 17:40:18;;;;;;;8.73;3.65;;;;;;;;;;5015536;28;20181;-81
2021/06/18 17:43:22;;;;;;;5.28;3.35;;;;;;;;;;5016477;28;20180;-81
2021/06/18 17:46:26;;;;;;;5.10;3.30;;;;;;;;;;5014005;28;20179;-81
2021/06/18 17:49:34;;;;;;;3.70;3.30;;;;;;;;;;5012995;28;20830;-81
2021/06/18 17:52:39;;;;;;;6.07;3.50;;;;;;;;;;5013522;28;20228;-81
2021/06/18 17:55:43;;;;;;;6.55;3.40;;;;;;;;;;5013243;28;20188;-81
2021/06/18 17:58:48;;;;;;;4.03;3.13;;;;;;;;;;5015529;28;20607;-81
2021/06/18 18:01:52;;;;;;;3.92;3.47;;;;;;;;;;5025325;28;20228;-81
2021/06/18 18:04:57;;;;;;;5.38;3.45;;;;;;;;;;5001893;28;20202;-82
2021/06/18 18:08:01;;;;;;;4.18;3.38;;;;;;;;;;5001774;28;20216;-81
2021/06/18 18:11:06;;;;;;;3.60;3.30;;;;;;;;;;5001533;28;20212;-81
2021/06/18 18:14:10;;;;;;;5.15;3.40;;;;;;;;;;5013007;28;20181;-81
2021/06/18 18:17:15;;;;;;;6.35;3.63;;;;;;;;;;5001796;28;20176;-81
2021/06/18 18:20:19;;;;;;;11.70;3.83;;;;;;;;;;5013017;28;20176;-81
2021/06/18 18:27:49;;;;;;;5.38;3.60;;;;;;;;;;5013815;28;20212;-81
2021/06/18 18:30:54;;;;;;;5.65;3.88;;;;;;;;;;5012991;28;20174;-81
2021/06/18 18:33:58;;;;;;;4.35;3.90;;;;;;;;;;5000744;28;20189;-81
2021/06/18 18:37:03;;;;;;;4.22;3.78;;;;;;;;;;5012653;28;20174;-81
2021/06/18 18:40:08;;;;;;;5.43;3.55;;;;;;;;;;5001379;28;20181;-80